Time,TemperatureF,DewpointF,PressureIn,WindDirection,WindDirectionDegrees,WindSpeedMPH,WindSpeedGustMPH,Humidity,HourlyPrecipIn,Conditions,Clouds,dailyrainin,SoftwareType,DateUTC
2013-09-12 00:01:00,72.6,72.2,30.03,NW,307,0.0,0.0,98,0.00,,CLR,0.00,VWS V14.01,2013-09-12 04:01:00,
2013-09-12 00:05:00,72.5,72.1,30.03,NW,307,0.0,0.0,99,0.00,,CLR,0.00,VWS V14.01,2013-09-12 04:05:00,
2013-09-12 00:07:00,72.4,72.0,30.02,NW,307,0.0,0.0,99,0.00,,CLR,0.00,VWS V14.01,2013-09-12 04:07:00,
2013-09-12 00:10:00,72.4,72.0,30.03,NW,307,0.0,0.0,99,0.00,,CLR,0.00,VWS V14.01,2013-09-12 04:10:00,
2013-09-12 00:11:00,72.4,72.1,30.03,NW,307,0.0,0.0,99,0.00,,CLR,0.00,VWS V14.01,2013-09-12 04:11:00,
2013-09-12 00:16:00,72.3,71.9,30.02,NW,307,0.0,0.0,99,0.00,,CLR,0.00,VWS V14.01,2013-09-12 04:16:00,
2013-09-12 00:21:00,72.2,71.9,30.02,NW,307,0.0,0.0,99,0.00,,CLR,0.00,VWS V14.01,2013-09-12 04:21:00,
2013-09-12 00:26:00,72.2,71.9,30.02,NW,307,0.0,0.0,99,0.00,,CLR,0.00,VWS V14.01,2013-09-12 04:26:00,
2013-09-12 00:31:00,72.1,71.8,30.02,NW,307,0.0,0.0,99,0.00,,CLR,0.00,VWS V14.01,2013-09-12 04:31:00,
2013-09-12 00:36:00,72.0,71.8,30.02,NW,307,0.0,0.0,99,0.00,,CLR,0.00,VWS V14.01,2013-09-12 04:36:00,
2013-09-12 00:41:00,71.9,71.7,30.02,NW,307,0.0,0.0,99,0.00,,CLR,0.00,VWS V14.01,2013-09-12 04:41:00,
2013-09-12 00:46:00,71.8,71.7,30.02,NW,307,0.0,0.0,100,0.00,,CLR,0.00,VWS V14.01,2013-09-12 04:46:00,
2013-09-12 00:51:00,71.8,71.7,30.01,NW,307,0.0,0.0,100,0.00,,CLR,0.00,VWS V14.01,2013-09-12 04:51:00,
2013-09-12 00:56:00,71.7,71.6,30.01,NW,307,0.0,0.0,100,0.00,,CLR,0.00,VWS V14.01,2013-09-12 04:56:00,
2013-09-12 01:01:00,71.6,71.6,30.01,NW,307,0.0,0.0,100,0.00,,CLR,0.00,VWS V14.01,2013-09-12 05:01:00,
2013-09-12 01:06:00,71.5,71.5,30.00,NW,307,0.0,0.0,100,0.00,,CLR,0.00,VWS V14.01,2013-09-12 05:06:00,
2013-09-12 01:11:00,71.5,71.5,30.01,NW,307,0.0,0.0,100,0.00,,CLR,0.00,VWS V14.01,2013-09-12 05:11:00,
2013-09-12 01:16:00,71.4,71.4,30.00,NW,307,0.0,0.0,100,0.00,,CLR,0.00,VWS V14.01,2013-09-12 05:16:00,
2013-09-12 01:21:00,71.3,71.3,30.00,NW,307,0.0,0.0,100,0.00,,CLR,0.00,VWS V14.01,2013-09-12 05:21:00,
2013-09-12 01:26:00,71.2,71.2,29.99,NW,307,0.0,0.0,100,0.00,,CLR,0.00,VWS V14.01,2013-09-12 05:26:00,
2013-09-12 01:31:00,71.1,71.1,29.99,NW,307,0.0,0.0,100,0.00,,CLR,0.00,VWS V14.01,2013-09-12 05:31:00,
2013-09-12 01:36:00,71.0,71.0,30.00,NW,307,0.0,0.0,100,0.00,,CLR,0.00,VWS V14.01,2013-09-12 05:36:00,
2013-09-12 01:41:00,70.9,70.9,30.00,NW,307,0.0,0.0,100,0.00,,CLR,0.00,VWS V14.01,2013-09-12 05:41:00,
2013-09-12 01:46:00,70.7,70.7,29.99,NW,307,0.0,0.0,100,0.00,,CLR,0.00,VWS V14.01,2013-09-12 05:46:00,
2013-09-12 01:51:00,70.6,70.6,29.98,NW,307,0.0,0.0,100,0.00,,CLR,0.00,VWS V14.01,2013-09-12 05:51:00,
2013-09-12 01:56:00,70.5,70.5,29.98,NW,307,0.0,0.0,100,0.00,,CLR,0.00,VWS V14.01,2013-09-12 05:56:00,
2013-09-12 02:01:00,70.5,70.5,29.99,NW,307,0.0,0.0,100,0.00,,CLR,0.00,VWS V14.01,2013-09-12 06:01:00,
2013-09-12 02:07:00,70.4,70.4,29.98,NW,307,0.0,0.0,100,0.00,,CLR,0.00,VWS V14.01,2013-09-12 06:07:00,
2013-09-12 02:12:00,70.2,70.2,29.98,NW,307,0.0,0.0,100,0.00,,CLR,0.00,VWS V14.01,2013-09-12 06:12:00,
2013-09-12 02:17:00,70.1,70.1,29.98,NW,307,0.0,0.0,100,0.00,,CLR,0.00,VWS V14.01,2013-09-12 06:17:00,
2013-09-12 02:22:00,70.1,70.1,29.98,NW,307,0.0,0.0,100,0.00,,CLR,0.00,VWS V14.01,2013-09-12 06:22:00,
2013-09-12 02:27:00,70.0,70.0,29.98,NW,307,0.0,0.0,100,0.00,,CLR,0.00,VWS V14.01,2013-09-12 06:27:00,
2013-09-12 02:32:00,70.0,70.0,29.98,NW,307,0.0,0.0,100,0.00,,CLR,0.00,VWS V14.01,2013-09-12 06:32:00,
2013-09-12 02:37:00,69.8,69.8,29.97,NW,307,0.0,0.0,100,0.00,,CLR,0.00,VWS V14.01,2013-09-12 06:37:00,
2013-09-12 02:42:00,69.8,69.8,29.97,NW,307,0.0,0.0,100,0.00,,CLR,0.00,VWS V14.01,2013-09-12 06:42:00,
2013-09-12 02:47:00,69.7,69.7,29.98,NW,307,0.0,0.0,100,0.00,,CLR,0.00,VWS V14.01,2013-09-12 06:47:00,
2013-09-12 02:52:00,69.6,69.6,29.98,NW,307,0.0,0.0,100,0.00,,CLR,0.00,VWS V14.01,2013-09-12 06:52:00,
2013-09-12 02:57:00,69.5,69.5,29.98,NW,307,0.0,0.0,100,0.00,,CLR,0.00,VWS V14.01,2013-09-12 06:57:00,
2013-09-12 03:02:00,69.4,69.4,29.97,NW,307,0.0,0.0,100,0.00,,CLR,0.00,VWS V14.01,2013-09-12 07:02:00,
2013-09-12 03:07:00,69.5,69.5,29.97,NW,307,0.0,0.0,100,0.00,,CLR,0.00,VWS V14.01,2013-09-12 07:07:00,
2013-09-12 03:12:00,69.4,69.4,29.97,NW,307,0.0,0.0,100,0.00,,CLR,0.00,VWS V14.01,2013-09-12 07:12:00,
2013-09-12 03:17:00,69.4,69.4,29.98,NW,307,0.0,0.0,100,0.00,,CLR,0.00,VWS V14.01,2013-09-12 07:17:00,
2013-09-12 03:22:00,69.3,69.3,29.98,NW,307,0.0,0.0,100,0.00,,CLR,0.00,VWS V14.01,2013-09-12 07:22:00,
2013-09-12 03:27:00,69.2,69.2,29.97,NW,307,0.0,0.0,100,0.00,,CLR,0.00,VWS V14.01,2013-09-12 07:27:00,
2013-09-12 03:32:00,69.1,69.1,29.97,NW,307,0.0,0.0,100,0.00,,CLR,0.00,VWS V14.01,2013-09-12 07:32:00,
2013-09-12 03:37:00,69.1,69.1,29.97,NW,307,0.0,0.0,100,0.00,,CLR,0.00,VWS V14.01,2013-09-12 07:37:00,
2013-09-12 03:42:00,69.1,69.1,29.97,NW,307,0.0,0.0,100,0.00,,CLR,0.00,VWS V14.01,2013-09-12 07:42:00,
2013-09-12 03:47:00,69.1,69.1,29.97,NW,307,0.0,0.0,100,0.00,,CLR,0.00,VWS V14.01,2013-09-12 07:47:00,
2013-09-12 03:52:00,69.1,69.1,29.97,NW,307,0.0,0.0,100,0.00,,CLR,0.00,VWS V14.01,2013-09-12 07:52:00,
2013-09-12 03:57:00,69.0,69.0,29.96,NW,307,0.0,0.0,100,0.00,,CLR,0.00,VWS V14.01,2013-09-12 07:57:00,
2013-09-12 04:02:00,69.0,69.0,29.97,NW,307,0.0,0.0,100,0.00,,CLR,0.00,VWS V14.01,2013-09-12 08:02:00,
2013-09-12 04:07:00,69.1,69.1,29.97,NW,307,0.0,0.0,100,0.00,,CLR,0.00,VWS V14.01,2013-09-12 08:07:00,
2013-09-12 04:12:00,69.1,69.1,29.97,NW,307,0.0,0.0,100,0.00,,CLR,0.00,VWS V14.01,2013-09-12 08:12:00,
2013-09-12 04:18:00,69.0,69.0,29.97,NW,307,0.0,0.0,100,0.00,,CLR,0.00,VWS V14.01,2013-09-12 08:18:00,
2013-09-12 04:23:00,69.0,69.0,29.96,NW,307,0.0,0.0,100,0.00,,CLR,0.00,VWS V14.01,2013-09-12 08:23:00,
2013-09-12 04:28:00,68.9,68.9,29.97,NW,307,0.0,0.0,100,0.00,,CLR,0.00,VWS V14.01,2013-09-12 08:28:00,
2013-09-12 04:33:00,68.9,68.9,29.97,NW,307,0.0,0.0,100,0.00,,CLR,0.00,VWS V14.01,2013-09-12 08:33:00,
2013-09-12 04:38:00,68.9,68.9,29.97,NW,307,0.0,0.0,100,0.00,,CLR,0.00,VWS V14.01,2013-09-12 08:38:00,
2013-09-12 04:43:00,68.9,68.9,29.96,NW,307,0.0,0.0,100,0.00,,CLR,0.00,VWS V14.01,2013-09-12 08:43:00,
2013-09-12 04:48:00,68.9,68.9,29.96,NW,307,0.0,0.0,100,0.00,,CLR,0.00,VWS V14.01,2013-09-12 08:48:00,
2013-09-12 04:53:00,68.9,68.9,29.97,NW,307,0.0,0.0,100,0.00,,CLR,0.00,VWS V14.01,2013-09-12 08:53:00,
2013-09-12 04:58:00,68.8,68.8,29.97,NW,307,0.0,0.0,100,0.00,,CLR,0.00,VWS V14.01,2013-09-12 08:58:00,
2013-09-12 05:03:00,68.9,68.9,29.97,NW,307,0.0,0.0,100,0.00,,CLR,0.00,VWS V14.01,2013-09-12 09:03:00,
2013-09-12 05:08:00,68.8,68.8,29.96,NW,307,0.0,0.0,100,0.00,,CLR,0.00,VWS V14.01,2013-09-12 09:08:00,
2013-09-12 05:13:00,68.8,68.8,29.96,NW,307,0.0,0.0,100,0.00,,CLR,0.00,VWS V14.01,2013-09-12 09:13:00,
2013-09-12 05:18:00,68.8,68.8,29.96,NW,307,0.0,0.0,100,0.00,,CLR,0.00,VWS V14.01,2013-09-12 09:18:00,
2013-09-12 05:23:00,68.8,68.8,29.97,NW,307,0.0,0.0,100,0.00,,CLR,0.00,VWS V14.01,2013-09-12 09:23:00,
2013-09-12 05:28:00,68.9,68.9,29.96,NW,307,0.0,0.0,100,0.00,,CLR,0.00,VWS V14.01,2013-09-12 09:28:00,
2013-09-12 05:33:00,68.9,68.9,29.96,NW,307,0.0,0.0,100,0.00,,CLR,0.00,VWS V14.01,2013-09-12 09:33:00,
2013-09-12 05:38:00,68.9,68.9,29.95,NW,307,0.0,0.0,100,0.00,,CLR,0.00,VWS V14.01,2013-09-12 09:38:00,
2013-09-12 05:43:00,69.0,69.0,29.96,NW,307,0.0,0.0,100,0.00,,CLR,0.00,VWS V14.01,2013-09-12 09:43:00,
2013-09-12 05:48:00,68.9,68.9,29.97,NW,307,0.0,0.0,100,0.00,,CLR,0.00,VWS V14.01,2013-09-12 09:48:00,
2013-09-12 05:53:00,69.0,69.0,29.97,NW,307,0.0,0.0,100,0.00,,CLR,0.00,VWS V14.01,2013-09-12 09:53:00,
2013-09-12 05:58:00,68.9,68.9,29.96,NW,307,0.0,0.0,100,0.00,,CLR,0.00,VWS V14.01,2013-09-12 09:58:00,
2013-09-12 06:03:00,68.9,68.9,29.95,NW,307,0.0,0.0,100,0.00,,CLR,0.00,VWS V14.01,2013-09-12 10:03:00,
2013-09-12 06:08:00,68.9,68.9,29.95,NW,307,0.0,0.0,100,0.00,,CLR,0.00,VWS V14.01,2013-09-12 10:08:00,
2013-09-12 06:13:00,68.9,68.9,29.96,NW,307,0.0,0.0,100,0.00,,CLR,0.00,VWS V14.01,2013-09-12 10:13:00,
2013-09-12 06:18:00,68.8,68.8,29.96,NW,307,0.0,0.0,100,0.00,,CLR,0.00,VWS V14.01,2013-09-12 10:18:00,
2013-09-12 06:23:00,68.8,68.8,29.96,NW,307,0.0,0.0,100,0.00,,CLR,0.00,VWS V14.01,2013-09-12 10:23:00,
2013-09-12 06:28:00,68.8,68.8,29.95,NW,307,0.0,0.0,100,0.00,,CLR,0.00,VWS V14.01,2013-09-12 10:28:00,
2013-09-12 06:33:00,68.8,68.8,29.96,NW,307,0.0,0.0,100,0.00,,CLR,0.00,VWS V14.01,2013-09-12 10:33:00,
2013-09-12 06:39:00,68.7,68.7,29.96,NW,307,0.0,0.0,100,0.00,,CLR,0.00,VWS V14.01,2013-09-12 10:39:00,
2013-09-12 06:44:00,68.7,68.7,29.96,NW,307,0.0,0.0,100,0.00,,CLR,0.00,VWS V14.01,2013-09-12 10:44:00,
2013-09-12 06:49:00,68.7,68.7,29.95,NW,307,0.0,0.0,100,0.00,,CLR,0.00,VWS V14.01,2013-09-12 10:49:00,
2013-09-12 06:54:00,68.7,68.7,29.95,NW,307,0.0,0.0,100,0.00,,CLR,0.00,VWS V14.01,2013-09-12 10:54:00,
2013-09-12 06:59:00,68.8,68.8,29.95,NW,307,0.0,0.0,100,0.00,,CLR,0.00,VWS V14.01,2013-09-12 10:59:00,
2013-09-12 07:05:00,68.9,68.9,29.95,NW,307,0.0,0.0,100,0.00,,,0.00,VWS V14.01,2013-09-12 11:05:00,
2013-09-12 07:10:00,68.9,68.9,29.95,NW,307,0.0,0.0,100,0.00,,,0.00,VWS V14.01,2013-09-12 11:10:00,
2013-09-12 07:15:00,69.0,69.0,29.95,NW,307,0.0,0.0,100,0.00,,,0.00,VWS V14.01,2013-09-12 11:15:00,
2013-09-12 07:20:00,69.1,69.1,29.96,NW,307,0.0,0.0,100,0.00,,,0.00,VWS V14.01,2013-09-12 11:20:00,
2013-09-12 07:25:00,69.2,69.2,29.96,NW,307,0.0,0.0,100,0.00,,,0.00,VWS V14.01,2013-09-12 11:25:00,
2013-09-12 07:30:00,69.3,69.3,29.95,NW,307,0.0,0.0,100,0.00,,,0.00,VWS V14.01,2013-09-12 11:30:00,
2013-09-12 07:35:00,69.5,69.5,29.95,NW,307,0.0,0.0,100,0.00,,,0.00,VWS V14.01,2013-09-12 11:35:00,
2013-09-12 07:40:00,69.5,69.5,29.95,NW,307,0.0,0.0,100,0.00,,,0.00,VWS V14.01,2013-09-12 11:40:00,
2013-09-12 07:45:00,69.7,69.7,29.95,NW,307,0.0,0.0,100,0.00,,,0.00,VWS V14.01,2013-09-12 11:45:00,
2013-09-12 07:50:00,70.2,70.2,29.95,NW,307,0.0,0.0,100,0.00,,,0.00,VWS V14.01,2013-09-12 11:50:00,
2013-09-12 07:55:00,70.4,70.4,29.95,NW,307,0.0,0.0,100,0.00,,,0.00,VWS V14.01,2013-09-12 11:55:00,
2013-09-12 08:00:00,70.7,70.7,29.95,NW,307,0.0,0.0,100,0.00,,,0.00,VWS V14.01,2013-09-12 12:00:00,
2013-09-12 08:05:00,70.9,70.9,29.94,NW,307,0.0,0.0,100,0.00,,,0.00,VWS V14.01,2013-09-12 12:05:00,
2013-09-12 08:10:00,71.1,71.1,29.94,NW,307,0.0,0.0,100,0.00,,,0.00,VWS V14.01,2013-09-12 12:10:00,
2013-09-12 08:15:00,71.3,71.3,29.94,NW,307,0.0,0.0,100,0.00,,,0.00,VWS V14.01,2013-09-12 12:15:00,
2013-09-12 08:20:00,71.5,71.5,29.94,NW,307,0.0,0.0,100,0.00,,,0.00,VWS V14.01,2013-09-12 12:20:00,
2013-09-12 08:25:00,71.5,71.5,29.94,NW,307,0.0,0.0,100,0.00,,,0.00,VWS V14.01,2013-09-12 12:25:00,
2013-09-12 08:30:00,71.6,71.6,29.93,NW,307,0.0,0.0,100,0.00,,,0.00,VWS V14.01,2013-09-12 12:30:00,
2013-09-12 08:35:00,71.8,71.8,29.94,NW,307,0.0,0.0,100,0.00,,,0.00,VWS V14.01,2013-09-12 12:35:00,
2013-09-12 08:40:00,71.8,71.8,29.94,NW,307,0.0,0.0,100,0.00,,,0.00,VWS V14.01,2013-09-12 12:40:00,
2013-09-12 08:45:00,72.1,72.1,29.94,NW,307,0.0,0.0,100,0.00,,,0.00,VWS V14.01,2013-09-12 12:45:00,
2013-09-12 08:50:00,72.1,72.1,29.94,NW,307,0.0,0.0,100,0.00,,,0.00,VWS V14.01,2013-09-12 12:50:00,
2013-09-12 08:55:00,72.2,72.2,29.93,NW,307,0.0,0.0,100,0.00,,,0.00,VWS V14.01,2013-09-12 12:55:00,
2013-09-12 09:00:00,72.4,72.4,29.93,NW,307,0.0,0.0,100,0.00,,,0.00,VWS V14.01,2013-09-12 13:00:00,
2013-09-12 09:05:00,72.7,72.7,29.93,NW,307,0.0,0.0,100,0.00,,,0.00,VWS V14.01,2013-09-12 13:05:00,
2013-09-12 09:10:00,73.0,73.0,29.94,West,276,0.0,0.0,100,0.00,,,0.00,VWS V14.01,2013-09-12 13:10:00,
2013-09-12 09:16:00,73.2,73.2,29.93,WSW,242,0.0,7.4,100,0.00,,,0.00,VWS V14.01,2013-09-12 13:16:00,
2013-09-12 09:21:00,73.4,73.4,29.92,WSW,242,0.0,0.0,100,0.00,,,0.00,VWS V14.01,2013-09-12 13:21:00,
2013-09-12 09:26:00,73.5,73.5,29.92,WSW,242,0.0,0.0,100,0.00,,,0.00,VWS V14.01,2013-09-12 13:26:00,
2013-09-12 09:31:00,73.7,73.7,29.93,WSW,242,0.0,0.0,100,0.00,,,0.00,VWS V14.01,2013-09-12 13:31:00,
2013-09-12 09:36:00,73.9,73.9,29.93,WSW,242,0.0,0.0,100,0.00,,,0.00,VWS V14.01,2013-09-12 13:36:00,
2013-09-12 09:41:00,74.2,74.2,29.93,SSW,200,0.0,0.0,100,0.00,,,0.00,VWS V14.01,2013-09-12 13:41:00,
2013-09-12 09:46:00,74.5,74.5,29.93,SSW,200,0.0,0.0,100,0.00,,,0.00,VWS V14.01,2013-09-12 13:46:00,
2013-09-12 09:51:00,74.8,74.8,29.93,SSW,200,0.0,0.0,100,0.00,,,0.00,VWS V14.01,2013-09-12 13:51:00,
2013-09-12 09:56:00,74.9,74.9,29.92,SSW,200,0.0,0.0,100,0.00,,,0.00,VWS V14.01,2013-09-12 13:56:00,
2013-09-12 10:01:00,75.2,75.2,29.91,SSW,200,0.0,0.0,100,0.00,,,0.00,VWS V14.01,2013-09-12 14:01:00,
2013-09-12 10:06:00,75.5,75.3,29.91,SSW,200,0.0,0.0,99,0.00,,,0.00,VWS V14.01,2013-09-12 14:06:00,
2013-09-12 10:11:00,75.9,75.4,29.91,SSW,200,0.0,0.0,98,0.00,,,0.00,VWS V14.01,2013-09-12 14:11:00,
2013-09-12 10:16:00,76.3,75.5,29.91,SSW,200,0.0,0.0,97,0.00,,,0.00,VWS V14.01,2013-09-12 14:16:00,
2013-09-12 10:21:00,76.9,75.9,29.92,SSW,200,0.0,0.0,97,0.00,,,0.00,VWS V14.01,2013-09-12 14:21:00,
2013-09-12 10:26:00,77.2,75.8,29.91,SSW,200,0.0,0.0,95,0.00,,,0.00,VWS V14.01,2013-09-12 14:26:00,
2013-09-12 10:31:00,77.7,75.7,29.91,SSW,200,0.0,0.0,94,0.00,,,0.00,VWS V14.01,2013-09-12 14:31:00,
2013-09-12 10:36:00,78.2,76.1,29.91,SSW,200,0.0,0.0,93,0.00,,,0.00,VWS V14.01,2013-09-12 14:36:00,
2013-09-12 10:41:00,78.5,75.8,29.91,SSW,200,0.0,0.0,92,0.00,,,0.00,VWS V14.01,2013-09-12 14:41:00,
2013-09-12 10:46:00,79.1,76.6,29.90,SSW,200,0.0,0.0,92,0.00,,,0.00,VWS V14.01,2013-09-12 14:46:00,
2013-09-12 10:51:00,79.1,76.2,29.90,SSW,200,0.0,0.0,91,0.00,,,0.00,VWS V14.01,2013-09-12 14:51:00,
2013-09-12 10:56:00,79.4,76.2,29.90,WSW,255,2.5,5.1,90,0.00,,,0.00,VWS V14.01,2013-09-12 14:56:00,
2013-09-12 11:01:00,79.9,76.0,29.90,WSW,255,0.0,0.0,88,0.00,,,0.00,VWS V14.01,2013-09-12 15:01:00,
2013-09-12 11:06:00,80.0,75.3,29.90,WSW,242,5.3,7.3,86,0.00,,,0.00,VWS V14.01,2013-09-12 15:06:00,
2013-09-12 11:11:00,80.1,75.0,29.89,West,273,0.0,0.0,84,0.00,,,0.00,VWS V14.01,2013-09-12 15:11:00,
2013-09-12 11:16:00,80.1,75.2,29.89,West,273,0.0,0.0,85,0.00,,,0.00,VWS V14.01,2013-09-12 15:16:00,
2013-09-12 11:21:00,80.0,75.1,29.89,West,273,0.0,0.0,85,0.00,,,0.00,VWS V14.01,2013-09-12 15:21:00,
2013-09-12 11:26:00,80.0,75.3,29.89,WNW,283,0.0,3.4,86,0.00,,,0.00,VWS V14.01,2013-09-12 15:26:00,
2013-09-12 11:32:00,80.1,74.9,29.89,WNW,283,0.0,0.0,84,0.00,,,0.00,VWS V14.01,2013-09-12 15:32:00,
2013-09-12 11:37:00,80.3,74.1,29.89,North,7,0.0,3.2,81,0.00,,,0.00,VWS V14.01,2013-09-12 15:37:00,
2013-09-12 11:42:00,80.5,74.5,29.89,SW,225,0.0,0.0,82,0.00,,,0.00,VWS V14.01,2013-09-12 15:42:00,
2013-09-12 11:47:00,80.7,74.6,29.89,WSW,238,0.0,4.2,82,0.00,,,0.00,VWS V14.01,2013-09-12 15:47:00,
2013-09-12 11:52:00,80.9,75.2,29.89,WSW,238,0.0,0.0,83,0.00,,,0.00,VWS V14.01,2013-09-12 15:52:00,
2013-09-12 11:57:00,80.9,74.8,29.88,West,262,0.0,4.1,82,0.00,,,0.00,VWS V14.01,2013-09-12 15:57:00,
2013-09-12 12:02:00,81.0,74.3,29.88,WNW,288,2.9,8.1,80,0.00,,,0.00,VWS V14.01,2013-09-12 16:02:00,
2013-09-12 12:07:00,81.4,74.8,29.88,WNW,288,0.0,8.1,80,0.00,,,0.00,VWS V14.01,2013-09-12 16:07:00,
2013-09-12 12:12:00,81.3,75.3,29.88,North,356,3.2,4.3,82,0.00,,,0.00,VWS V14.01,2013-09-12 16:12:00,
2013-09-12 12:17:00,81.4,74.3,29.87,WNW,284,0.0,6.0,79,0.00,,,0.00,VWS V14.01,2013-09-12 16:17:00,
2013-09-12 12:22:00,81.6,75.2,29.87,WNW,284,0.0,0.0,81,0.00,,,0.00,VWS V14.01,2013-09-12 16:22:00,
2013-09-12 12:27:00,81.6,75.2,29.87,WNW,284,3.5,3.5,81,0.00,,,0.00,VWS V14.01,2013-09-12 16:27:00,
2013-09-12 12:32:00,81.5,75.0,29.87,WNW,284,0.0,0.0,81,0.00,,,0.00,VWS V14.01,2013-09-12 16:32:00,
2013-09-12 12:37:00,81.4,73.1,29.86,West,276,0.0,4.9,76,0.00,,,0.00,VWS V14.01,2013-09-12 16:37:00,
2013-09-12 12:42:00,81.9,74.0,29.86,NNW,329,0.0,0.0,77,0.00,,,0.00,VWS V14.01,2013-09-12 16:42:00,
2013-09-12 12:47:00,82.1,75.3,29.86,NNW,329,0.0,0.0,80,0.00,,,0.00,VWS V14.01,2013-09-12 16:47:00,
2013-09-12 12:52:00,82.2,74.9,29.86,East,101,3.4,6.2,79,0.00,,,0.00,VWS V14.01,2013-09-12 16:52:00,
2013-09-12 12:57:00,82.4,74.2,29.86,SSW,212,0.0,6.2,76,0.00,,,0.00,VWS V14.01,2013-09-12 16:57:00,
2013-09-12 13:02:00,82.7,73.0,29.86,WNW,290,3.2,6.6,72,0.00,,,0.00,VWS V14.01,2013-09-12 17:02:00,
2013-09-12 13:07:00,82.9,73.1,29.86,SSW,194,0.0,13.6,72,0.00,,,0.00,VWS V14.01,2013-09-12 17:07:00,
2013-09-12 13:12:00,82.8,73.1,29.87,SSW,194,0.0,0.0,73,0.00,,,0.00,VWS V14.01,2013-09-12 17:12:00,
2013-09-12 13:17:00,82.8,73.7,29.86,SSW,194,0.0,3.0,74,0.00,,,0.00,VWS V14.01,2013-09-12 17:17:00,
2013-09-12 13:22:00,82.3,73.6,29.86,SW,217,0.0,0.0,75,0.00,,,0.00,VWS V14.01,2013-09-12 17:22:00,
2013-09-12 13:27:00,81.6,73.3,29.85,SW,217,0.0,0.0,76,0.00,,,0.00,VWS V14.01,2013-09-12 17:27:00,
2013-09-12 13:32:00,81.2,74.0,29.85,SW,217,0.0,0.0,79,0.00,,,0.00,VWS V14.01,2013-09-12 17:32:00,
2013-09-12 13:38:00,80.4,73.7,29.85,SW,217,0.0,0.0,80,0.00,,,0.00,VWS V14.01,2013-09-12 17:38:00,
2013-09-12 13:43:00,80.1,74.3,29.86,West,276,2.5,7.8,82,0.00,,,0.00,VWS V14.01,2013-09-12 17:43:00,
2013-09-12 13:48:00,79.4,73.9,29.85,SSE,163,0.0,7.8,83,0.00,,,0.00,VWS V14.01,2013-09-12 17:48:00,
2013-09-12 13:53:00,78.8,73.1,29.85,SSE,163,0.0,0.0,83,0.00,,,0.00,VWS V14.01,2013-09-12 17:53:00,
2013-09-12 13:58:00,78.5,73.0,29.85,SSE,163,0.0,4.2,83,0.00,,,0.00,VWS V14.01,2013-09-12 17:58:00,
2013-09-12 14:03:00,78.2,72.8,29.85,SSE,163,0.0,0.0,84,0.00,,RA,0.00,VWS V14.01,2013-09-12 18:03:00,
2013-09-12 14:08:00,77.7,72.4,29.84,SSE,163,0.0,0.0,84,0.00,,RA,0.00,VWS V14.01,2013-09-12 18:08:00,
2013-09-12 14:13:00,77.0,71.9,29.84,SSE,163,0.0,0.0,84,0.00,,RA,0.00,VWS V14.01,2013-09-12 18:13:00,
2013-09-12 14:18:00,76.5,71.6,29.83,SSE,163,0.0,0.0,85,0.00,,RA,0.00,VWS V14.01,2013-09-12 18:18:00,
2013-09-12 14:23:00,76.2,71.7,29.83,SSE,163,0.0,0.0,86,0.00,,RA,0.00,VWS V14.01,2013-09-12 18:23:00,
2013-09-12 14:28:00,76.0,71.8,29.82,SSE,163,0.0,0.0,87,0.00,,RA,0.00,VWS V14.01,2013-09-12 18:28:00,
2013-09-12 14:33:00,75.8,72.1,29.82,SSE,163,0.0,0.0,88,0.00,,RA,0.00,VWS V14.01,2013-09-12 18:33:00,
2013-09-12 14:38:00,75.4,71.9,29.82,SSE,163,0.0,0.0,89,0.00,,RA,0.00,VWS V14.01,2013-09-12 18:38:00,
2013-09-12 14:43:00,75.2,72.1,29.82,SSE,163,0.0,0.0,90,0.00,,RA,0.00,VWS V14.01,2013-09-12 18:43:00,
2013-09-12 14:48:00,75.2,72.2,29.81,SSE,163,0.0,0.0,90,0.00,,RA,0.00,VWS V14.01,2013-09-12 18:48:00,
2013-09-12 14:53:00,75.0,72.1,29.81,SSE,163,0.0,0.0,91,0.00,,RA,0.00,VWS V14.01,2013-09-12 18:53:00,
2013-09-12 14:58:00,75.1,72.4,29.81,SSE,163,0.0,0.0,91,0.00,,RA,0.00,VWS V14.01,2013-09-12 18:58:00,
2013-09-12 15:03:00,75.1,72.4,29.81,SSE,163,0.0,0.0,91,0.00,,-RA,0.00,VWS V14.01,2013-09-12 19:03:00,
2013-09-12 15:08:00,75.3,72.7,29.80,SSE,163,0.0,0.0,92,0.00,,-RA,0.00,VWS V14.01,2013-09-12 19:08:00,
2013-09-12 15:13:00,75.4,72.7,29.80,SSE,163,0.0,0.0,91,0.00,,-RA,0.00,VWS V14.01,2013-09-12 19:13:00,
2013-09-12 15:18:00,75.7,73.0,29.80,SSE,163,0.0,0.0,91,0.00,,-RA,0.00,VWS V14.01,2013-09-12 19:18:00,
2013-09-12 15:23:00,75.8,73.1,29.79,SSE,163,0.0,0.0,91,0.00,,-RA,0.00,VWS V14.01,2013-09-12 19:23:00,
2013-09-12 15:28:00,75.7,71.8,29.79,ESE,105,0.0,4.5,88,0.00,,-RA,0.00,VWS V14.01,2013-09-12 19:28:00,
2013-09-12 15:33:00,76.1,71.9,29.79,ESE,105,0.0,0.0,87,0.00,,-RA,0.00,VWS V14.01,2013-09-12 19:33:00,
2013-09-12 15:38:00,76.6,71.9,29.79,ESE,105,0.0,0.0,86,0.00,,-RA,0.00,VWS V14.01,2013-09-12 19:38:00,
2013-09-12 15:43:00,77.1,72.4,29.78,ESE,105,0.0,0.0,86,0.00,,-RA,0.00,VWS V14.01,2013-09-12 19:43:00,
2013-09-12 15:49:00,77.3,71.3,29.78,West,259,2.8,6.0,82,0.00,,-RA,0.00,VWS V14.01,2013-09-12 19:49:00,
2013-09-12 15:54:00,77.7,71.3,29.78,West,277,0.0,0.0,81,0.00,,-RA,0.00,VWS V14.01,2013-09-12 19:54:00,
2013-09-12 15:59:00,78.2,71.9,29.77,NE,41,0.0,5.2,81,0.00,,-RA,0.00,VWS V14.01,2013-09-12 19:59:00,
2013-09-12 16:04:00,78.5,72.0,29.76,NE,41,0.0,0.0,80,0.00,,CLR,0.00,VWS V14.01,2013-09-12 20:04:00,
2013-09-12 16:09:00,78.8,72.7,29.76,NE,41,0.0,0.0,82,0.00,,CLR,0.00,VWS V14.01,2013-09-12 20:09:00,
2013-09-12 16:14:00,79.1,73.0,29.76,NE,41,0.0,0.0,82,0.00,,CLR,0.00,VWS V14.01,2013-09-12 20:14:00,
2013-09-12 16:19:00,79.1,72.9,29.76,NE,41,0.0,0.0,81,0.00,,CLR,0.00,VWS V14.01,2013-09-12 20:19:00,
2013-09-12 16:24:00,79.4,73.4,29.76,NE,41,0.0,0.0,82,0.00,,CLR,0.00,VWS V14.01,2013-09-12 20:24:00,
2013-09-12 16:29:00,79.4,73.7,29.76,NE,41,0.0,0.0,83,0.00,,CLR,0.00,VWS V14.01,2013-09-12 20:29:00,
2013-09-12 16:34:00,79.7,73.9,29.76,NE,41,0.0,0.0,82,0.00,,CLR,0.00,VWS V14.01,2013-09-12 20:34:00,
2013-09-12 16:39:00,79.7,73.9,29.76,NE,41,0.0,0.0,83,0.00,,CLR,0.00,VWS V14.01,2013-09-12 20:39:00,
2013-09-12 16:44:00,79.5,73.6,29.76,NE,41,0.0,0.0,82,0.00,,CLR,0.00,VWS V14.01,2013-09-12 20:44:00,
2013-09-12 16:49:00,79.4,73.2,29.76,WSW,249,0.0,5.2,81,0.00,,CLR,0.00,VWS V14.01,2013-09-12 20:49:00,
2013-09-12 16:54:00,79.7,73.6,29.75,WSW,249,0.0,0.0,82,0.00,,CLR,0.00,VWS V14.01,2013-09-12 20:54:00,
2013-09-12 16:59:00,79.9,74.1,29.76,WSW,249,0.0,0.0,82,0.00,,CLR,0.00,VWS V14.01,2013-09-12 20:59:00,
2013-09-12 17:04:00,79.9,74.0,29.75,WSW,249,0.0,0.0,82,0.00,,BKN110,0.00,VWS V14.01,2013-09-12 21:04:00,
2013-09-12 17:09:00,79.7,74.0,29.75,WSW,249,0.0,0.0,83,0.00,,BKN110,0.00,VWS V14.01,2013-09-12 21:09:00,
2013-09-12 17:14:00,79.4,74.1,29.76,WSW,249,0.0,0.0,84,0.00,,BKN110,0.00,VWS V14.01,2013-09-12 21:14:00,
2013-09-12 17:19:00,79.1,74.1,29.75,WSW,249,0.0,0.0,85,0.00,,BKN110,0.00,VWS V14.01,2013-09-12 21:19:00,
2013-09-12 17:24:00,78.4,72.8,29.75,WSW,249,0.0,0.0,83,0.00,,BKN110,0.00,VWS V14.01,2013-09-12 21:24:00,
2013-09-12 17:29:00,78.1,72.8,29.74,WSW,249,0.0,0.0,84,0.00,,BKN110,0.00,VWS V14.01,2013-09-12 21:29:00,
2013-09-12 17:34:00,77.9,73.2,29.74,WSW,249,0.0,0.0,86,0.00,,BKN110,0.00,VWS V14.01,2013-09-12 21:34:00,
2013-09-12 17:39:00,77.5,73.2,29.74,WSW,249,0.0,0.0,87,0.00,,BKN110,0.00,VWS V14.01,2013-09-12 21:39:00,
2013-09-12 17:44:00,77.0,72.7,29.74,WSW,249,0.0,0.0,87,0.00,,BKN110,0.00,VWS V14.01,2013-09-12 21:44:00,
2013-09-12 17:49:00,76.7,72.7,29.74,WSW,249,0.0,0.0,87,0.00,,BKN110,0.00,VWS V14.01,2013-09-12 21:49:00,
2013-09-12 17:54:00,76.4,72.5,29.75,WSW,249,0.0,0.0,88,0.00,,BKN110,0.00,VWS V14.01,2013-09-12 21:54:00,
2013-09-12 17:59:00,76.2,72.4,29.74,WSW,249,0.0,0.0,88,0.00,,BKN110,0.00,VWS V14.01,2013-09-12 21:59:00,
2013-09-12 18:05:00,76.1,72.4,29.74,WSW,249,0.0,0.0,88,0.00,,BKN110,0.00,VWS V14.01,2013-09-12 22:05:00,
2013-09-12 18:10:00,75.9,72.4,29.74,WSW,249,0.0,0.0,89,0.00,,BKN110,0.00,VWS V14.01,2013-09-12 22:10:00,
2013-09-12 18:15:00,75.7,72.5,29.74,WSW,249,0.0,0.0,90,0.00,,BKN110,0.00,VWS V14.01,2013-09-12 22:15:00,
2013-09-12 18:20:00,75.4,72.3,29.73,WSW,249,0.0,0.0,90,0.00,,BKN110,0.00,VWS V14.01,2013-09-12 22:20:00,
2013-09-12 18:25:00,75.1,72.1,29.74,WSW,249,0.0,0.0,90,0.00,,BKN110,0.00,VWS V14.01,2013-09-12 22:25:00,
2013-09-12 18:30:00,75.0,72.1,29.75,WSW,249,0.0,0.0,91,0.04,,BKN110,0.04,VWS V14.01,2013-09-12 22:30:00,
2013-09-12 18:35:00,74.8,72.1,29.74,WSW,249,0.0,0.0,91,0.16,,BKN110,0.16,VWS V14.01,2013-09-12 22:35:00,
2013-09-12 18:40:00,74.6,72.2,29.75,WSW,249,0.0,0.0,92,0.19,,BKN110,0.19,VWS V14.01,2013-09-12 22:40:00,
2013-09-12 18:45:00,74.0,72.0,29.79,WSW,249,0.0,0.0,93,0.26,,BKN110,0.26,VWS V14.01,2013-09-12 22:45:00,
2013-09-12 18:50:00,72.9,70.7,29.76,East,79,0.0,7.4,93,0.72,,BKN110,0.72,VWS V14.01,2013-09-12 22:50:00,
2013-09-12 18:55:00,72.0,70.0,29.75,East,79,0.0,0.0,93,0.99,,BKN110,0.99,VWS V14.01,2013-09-12 22:55:00,
2013-09-12 19:00:00,71.5,69.6,29.75,East,79,0.0,0.0,94,1.12,,BKN110,1.12,VWS V14.01,2013-09-12 23:00:00,
2013-09-12 19:05:00,71.3,69.6,29.74,East,79,0.0,0.0,94,1.16,,BKN110,1.16,VWS V14.01,2013-09-12 23:05:00,
2013-09-12 19:10:00,71.0,69.5,29.74,East,79,0.0,0.0,95,1.21,,BKN110,1.21,VWS V14.01,2013-09-12 23:10:00,
2013-09-12 19:15:00,70.8,69.3,29.73,East,79,0.0,0.0,95,1.33,,BKN110,1.33,VWS V14.01,2013-09-12 23:15:00,
2013-09-12 19:20:00,70.8,69.5,29.73,East,79,0.0,0.0,96,1.43,,BKN110,1.43,VWS V14.01,2013-09-12 23:20:00,
2013-09-12 19:25:00,70.8,69.6,29.73,East,79,0.0,0.0,96,1.50,,BKN110,1.50,VWS V14.01,2013-09-12 23:25:00,
2013-09-12 19:30:00,70.7,69.7,29.73,East,79,0.0,0.0,96,1.53,,BKN110,1.53,VWS V14.01,2013-09-12 23:30:00,
2013-09-12 19:35:00,70.7,69.8,29.74,East,79,0.0,0.0,97,1.52,,BKN110,1.57,VWS V14.01,2013-09-12 23:35:00,
2013-09-12 19:40:00,70.9,70.2,29.74,East,79,0.0,0.0,98,1.42,,BKN110,1.61,VWS V14.01,2013-09-12 23:40:00,
2013-09-12 19:45:00,70.8,70.3,29.76,East,79,0.0,0.0,98,1.49,,BKN110,1.68,VWS V14.01,2013-09-12 23:45:00,
2013-09-12 19:50:00,70.6,70.1,29.77,West,267,0.0,0.0,98,0.96,,BKN110,1.70,VWS V14.01,2013-09-12 23:50:00,
2013-09-12 19:55:00,70.3,69.8,29.76,West,274,0.0,3.4,98,1.11,,BKN110,1.85,VWS V14.01,2013-09-12 23:55:00,
2013-09-12 20:00:00,70.2,69.8,29.77,West,270,0.0,0.0,98,0.78,,BKN110,1.91,VWS V14.01,2013-09-13 00:00:00,
2013-09-12 20:05:00,70.0,69.6,29.77,West,270,0.0,0.0,99,0.82,,BKN110,1.95,VWS V14.01,2013-09-13 00:05:00,
2013-09-12 20:10:00,69.7,69.3,29.76,West,270,0.0,0.0,99,0.75,,BKN110,1.96,VWS V14.01,2013-09-13 00:10:00,
2013-09-12 20:15:00,69.4,69.1,29.75,West,277,0.0,6.2,99,0.76,,BKN110,1.97,VWS V14.01,2013-09-13 00:15:00,
2013-09-12 20:21:00,69.2,68.9,29.74,West,277,0.0,0.0,99,0.56,,BKN110,1.99,VWS V14.01,2013-09-13 00:21:00,
2013-09-12 20:26:00,69.1,68.8,29.75,West,277,0.0,0.0,99,0.56,,BKN110,1.99,VWS V14.01,2013-09-13 00:26:00,
2013-09-12 20:31:00,69.2,69.0,29.75,West,277,0.0,0.0,99,0.46,,BKN110,1.99,VWS V14.01,2013-09-13 00:31:00,
2013-09-12 20:36:00,69.2,69.1,29.76,West,277,0.0,0.0,100,0.46,,BKN110,1.99,VWS V14.01,2013-09-13 00:36:00,
2013-09-12 20:41:00,69.1,69.1,29.74,West,277,0.0,0.0,100,0.38,,BKN110,1.99,VWS V14.01,2013-09-13 00:41:00,
2013-09-12 20:46:00,68.9,68.9,29.74,West,277,0.0,0.0,100,0.39,,BKN110,2.00,VWS V14.01,2013-09-13 00:46:00,
2013-09-12 20:51:00,68.9,68.9,29.75,West,277,0.0,0.0,100,0.31,,BKN110,2.00,VWS V14.01,2013-09-13 00:51:00,
2013-09-12 20:56:00,68.8,68.8,29.75,West,277,0.0,0.0,100,0.31,,BKN110,2.00,VWS V14.01,2013-09-13 00:56:00,
2013-09-12 21:01:00,68.8,68.8,29.75,West,277,0.0,0.0,100,0.11,,BKN110,2.02,VWS V14.01,2013-09-13 01:01:00,
2013-09-12 21:06:00,68.7,68.7,29.74,West,277,0.0,0.0,100,0.12,,BKN110,2.03,VWS V14.01,2013-09-13 01:06:00,
2013-09-12 21:11:00,68.7,68.7,29.74,West,277,0.0,0.0,100,0.10,,BKN110,2.06,VWS V14.01,2013-09-13 01:11:00,
2013-09-12 21:16:00,68.7,68.7,29.75,West,277,0.0,0.0,100,0.12,,BKN110,2.08,VWS V14.01,2013-09-13 01:16:00,
2013-09-12 21:21:00,68.8,68.8,29.76,West,277,0.0,0.0,100,0.10,,BKN110,2.09,VWS V14.01,2013-09-13 01:21:00,
2013-09-12 21:26:00,68.8,68.8,29.75,West,277,0.0,0.0,100,0.10,,BKN110,2.09,VWS V14.01,2013-09-13 01:26:00,
2013-09-12 21:31:00,68.7,68.7,29.74,West,277,0.0,0.0,100,0.10,,BKN110,2.09,VWS V14.01,2013-09-13 01:31:00,
2013-09-12 21:36:00,68.7,68.7,29.73,West,277,0.0,0.0,100,0.11,,BKN110,2.10,VWS V14.01,2013-09-13 01:36:00,
2013-09-12 21:41:00,68.7,68.7,29.74,West,277,0.0,0.0,100,0.12,,BKN110,2.11,VWS V14.01,2013-09-13 01:41:00,
2013-09-12 21:46:00,68.7,68.7,29.74,West,277,0.0,0.0,100,0.14,,BKN110,2.13,VWS V14.01,2013-09-13 01:46:00,
2013-09-12 21:51:00,68.7,68.7,29.74,West,277,0.0,0.0,100,0.14,,BKN110,2.14,VWS V14.01,2013-09-13 01:51:00,
2013-09-12 21:56:00,68.6,68.6,29.73,West,277,0.0,0.0,100,0.14,,BKN110,2.14,VWS V14.01,2013-09-13 01:56:00,
2013-09-12 22:01:00,68.7,68.7,29.73,West,277,0.0,0.0,100,0.13,,BKN110,2.14,VWS V14.01,2013-09-13 02:01:00,
2013-09-12 22:06:00,68.7,68.7,29.74,West,277,0.0,0.0,100,0.13,,BKN110,2.14,VWS V14.01,2013-09-13 02:06:00,
2013-09-12 22:11:00,68.6,68.6,29.74,West,277,0.0,0.0,100,0.08,,BKN110,2.14,VWS V14.01,2013-09-13 02:11:00,
2013-09-12 22:16:00,68.6,68.6,29.74,West,277,0.0,0.0,100,0.08,,BKN110,2.14,VWS V14.01,2013-09-13 02:16:00,
2013-09-12 22:21:00,68.5,68.5,29.73,West,277,0.0,0.0,100,0.05,,BKN110,2.14,VWS V14.01,2013-09-13 02:21:00,
2013-09-12 22:26:00,68.4,68.4,29.73,West,277,0.0,0.0,100,0.05,,BKN110,2.14,VWS V14.01,2013-09-13 02:26:00,
2013-09-12 22:31:00,68.5,68.5,29.73,West,277,0.0,0.0,100,0.05,,BKN110,2.14,VWS V14.01,2013-09-13 02:31:00,
2013-09-12 22:37:00,68.5,68.5,29.73,West,277,0.0,0.0,100,0.05,,BKN110,2.14,VWS V14.01,2013-09-13 02:37:00,
2013-09-12 22:42:00,68.4,68.4,29.72,West,277,0.0,0.0,100,0.03,,BKN110,2.14,VWS V14.01,2013-09-13 02:42:00,
2013-09-12 22:47:00,68.3,68.3,29.72,West,277,0.0,0.0,100,0.03,,BKN110,2.14,VWS V14.01,2013-09-13 02:47:00,
2013-09-12 22:52:00,68.2,68.2,29.72,West,277,0.0,0.0,100,0.01,,BKN110,2.14,VWS V14.01,2013-09-13 02:52:00,
2013-09-12 22:57:00,68.1,68.1,29.73,West,277,0.0,0.0,100,0.01,,BKN110,2.14,VWS V14.01,2013-09-13 02:57:00,
2013-09-12 23:02:00,68.1,68.1,29.72,West,277,0.0,0.0,100,0.00,,BKN110,2.14,VWS V14.01,2013-09-13 03:02:00,
2013-09-12 23:07:00,68.0,68.0,29.72,West,277,0.0,0.0,100,0.00,,BKN110,2.14,VWS V14.01,2013-09-13 03:07:00,
2013-09-12 23:12:00,68.0,68.0,29.72,West,277,0.0,0.0,100,0.00,,BKN110,2.14,VWS V14.01,2013-09-13 03:12:00,
2013-09-12 23:17:00,67.9,67.9,29.72,West,277,0.0,0.0,100,0.00,,BKN110,2.14,VWS V14.01,2013-09-13 03:17:00,
2013-09-12 23:22:00,67.9,67.9,29.72,West,277,0.0,0.0,100,0.00,,BKN110,2.14,VWS V14.01,2013-09-13 03:22:00,
2013-09-12 23:27:00,67.8,67.8,29.73,West,277,0.0,0.0,100,0.00,,BKN110,2.14,VWS V14.01,2013-09-13 03:27:00,
2013-09-12 23:32:00,67.8,67.8,29.73,West,277,0.0,0.0,100,0.00,,BKN110,2.14,VWS V14.01,2013-09-13 03:32:00,
2013-09-12 23:37:00,67.7,67.7,29.72,West,277,0.0,0.0,100,0.00,,BKN110,2.14,VWS V14.01,2013-09-13 03:37:00,
2013-09-12 23:42:00,67.5,67.5,29.72,West,277,0.0,0.0,100,0.00,,BKN110,2.14,VWS V14.01,2013-09-13 03:42:00,
2013-09-12 23:47:00,67.5,67.5,29.72,West,277,0.0,0.0,100,0.00,,BKN110,2.14,VWS V14.01,2013-09-13 03:47:00,
2013-09-12 23:52:00,67.7,67.7,29.72,West,277,0.0,0.0,100,0.00,,BKN110,2.14,VWS V14.01,2013-09-13 03:52:00,
2013-09-12 23:57:00,67.7,67.7,29.73,West,277,0.0,0.0,100,0.00,,BKN110,2.14,VWS V14.01,2013-09-13 03:57:00,